Time;durP1;ratioP1;P1;durP2;ratioP2;P2;SDS_P1;SDS_P2;PMS_P1;PMS_P2;Temp;Humidity;BMP_temperature;BMP_pressure;BME280_temperature;BME280_humidity;BME280_pressure;Samples;Min_cycle;Max_cycle;Signal;HPM_P1;HPM_P2
2022/11/08 00:03:54;;;;;;;16.48;9.48;;;;;;;;;;4922082;29;20208;-57
2022/11/08 00:14:37;;;;;;;13.68;8.35;;;;;;;;;;4921958;29;20219;-57
2022/11/08 00:17:04;;;;;;;15.50;9.30;;;;;;;;;;4922124;29;20240;-57
2022/11/08 00:19:31;;;;;;;20.60;9.82;;;;;;;;;;4921884;29;20208;-56
2022/11/08 00:21:58;;;;;;;12.55;8.18;;;;;;;;;;4921532;29;20605;-56
2022/11/08 00:24:25;;;;;;;15.60;9.43;;;;;;;;;;4921906;29;20209;-57
2022/11/08 00:26:52;;;;;;;16.05;9.00;;;;;;;;;;4921725;29;20521;-58
2022/11/08 00:29:19;;;;;;;15.93;9.10;;;;;;;;;;4920770;29;20221;-58
2022/11/08 00:31:46;;;;;;;15.25;8.75;;;;;;;;;;4921727;29;20581;-56
2022/11/08 00:34:13;;;;;;;14.80;8.65;;;;;;;;;;4921482;29;20640;-56
2022/11/08 00:36:40;;;;;;;20.13;10.65;;;;;;;;;;4921241;29;20320;-56
2022/11/08 00:39:08;;;;;;;22.65;12.88;;;;;;;;;;4921712;29;20220;-57
2022/11/08 00:41:35;;;;;;;18.98;9.57;;;;;;;;;;4921273;29;20678;-57
2022/11/08 00:44:03;;;;;;;23.23;10.75;;;;;;;;;;4921218;29;20640;-57
2022/11/08 00:46:29;;;;;;;14.52;9.15;;;;;;;;;;4921505;29;20217;-56
2022/11/08 00:48:57;;;;;;;22.75;11.10;;;;;;;;;;4921393;29;20208;-58
2022/11/08 00:51:23;;;;;;;19.25;9.35;;;;;;;;;;4921494;29;20215;-56
2022/11/08 00:53:51;;;;;;;16.00;9.20;;;;;;;;;;4921339;29;20209;-57
2022/11/08 00:56:17;;;;;;;15.68;9.30;;;;;;;;;;4921192;29;20296;-56
2022/11/08 00:58:44;;;;;;;16.80;10.27;;;;;;;;;;4921469;29;20209;-58
2022/11/08 01:01:15;;;;;;;16.65;10.07;;;;;;;;;;4920941;29;20209;-57
2022/11/08 01:03:43;;;;;;;23.70;15.13;;;;;;;;;;4920769;29;20204;-56
2022/11/08 01:06:12;;;;;;;20.13;11.98;;;;;;;;;;4921149;29;20256;-55
2022/11/08 01:08:40;;;;;;;25.77;12.73;;;;;;;;;;4921166;29;20201;-58
2022/11/08 01:11:11;;;;;;;24.30;11.93;;;;;;;;;;4921030;29;20213;-56
2022/11/08 01:13:39;;;;;;;18.67;11.20;;;;;;;;;;4920900;29;20236;-57
2022/11/08 01:16:11;;;;;;;17.67;11.02;;;;;;;;;;4920562;29;20687;-58
2022/11/08 01:18:39;;;;;;;19.48;10.23;;;;;;;;;;4921242;29;20533;-57
2022/11/08 01:21:06;;;;;;;20.88;11.25;;;;;;;;;;4920921;29;20225;-58
2022/11/08 01:23:33;;;;;;;20.58;11.52;;;;;;;;;;4920409;29;20208;-57
2022/11/08 01:26:05;;;;;;;18.35;11.20;;;;;;;;;;4920725;29;20215;-57
2022/11/08 01:28:33;;;;;;;19.40;11.75;;;;;;;;;;4920860;29;20188;-56
2022/11/08 01:31:23;;;;;;;35.90;17.92;;;;;;;;;;4920697;29;20247;-57
2022/11/08 01:33:50;;;;;;;25.75;13.48;;;;;;;;;;4920573;29;20224;-58
2022/11/08 01:36:20;;;;;;;29.55;14.20;;;;;;;;;;4920192;29;20229;-58
2022/11/08 01:38:48;;;;;;;19.65;12.25;;;;;;;;;;4920167;29;20625;-55
2022/11/08 01:41:15;;;;;;;29.85;14.50;;;;;;;;;;4920677;29;20219;-54
2022/11/08 01:43:45;;;;;;;25.60;14.40;;;;;;;;;;4920352;29;20539;-58
2022/11/08 01:46:17;;;;;;;30.73;14.48;;;;;;;;;;4920280;29;20299;-57
2022/11/08 01:48:47;;;;;;;20.85;13.32;;;;;;;;;;4920168;29;20213;-58
2022/11/08 01:51:17;;;;;;;22.50;13.40;;;;;;;;;;4920018;29;20648;-57
2022/11/08 01:53:44;;;;;;;24.13;13.10;;;;;;;;;;4920362;29;20249;-56
2022/11/08 01:56:12;;;;;;;26.77;12.98;;;;;;;;;;4919060;29;20580;-57
2022/11/08 01:58:40;;;;;;;39.35;21.10;;;;;;;;;;4919431;29;20338;-57
2022/11/08 02:01:08;;;;;;;29.20;16.17;;;;;;;;;;4919114;29;20329;-56
2022/11/08 02:03:35;;;;;;;48.63;19.45;;;;;;;;;;4887562;29;20209;-54
2022/11/08 02:06:02;;;;;;;26.48;14.60;;;;;;;;;;4918881;29;20651;-56
2022/11/08 02:08:33;;;;;;;29.15;15.20;;;;;;;;;;4919291;29;20208;-58
2022/11/08 02:11:01;;;;;;;32.25;15.55;;;;;;;;;;4919191;29;20256;-56
2022/11/08 02:13:30;;;;;;;23.60;14.45;;;;;;;;;;4919403;29;20220;-56
2022/11/08 02:15:57;;;;;;;27.65;14.90;;;;;;;;;;4918998;29;20228;-58
2022/11/08 02:18:28;;;;;;;29.92;15.38;;;;;;;;;;4919781;29;20232;-58
2022/11/08 02:21:16;;;;;;;27.70;14.65;;;;;;;;;;4919622;29;20220;-57
2022/11/08 02:23:51;;;;;;;30.25;15.43;;;;;;;;;;4919667;29;20212;-55
2022/11/08 02:26:25;;;;;;;31.27;16.50;;;;;;;;;;4919074;29;20247;-58
2022/11/08 02:28:52;;;;;;;30.00;18.08;;;;;;;;;;4918578;29;20206;-54
2022/11/08 02:31:20;;;;;;;29.65;15.98;;;;;;;;;;4919867;29;20232;-57
2022/11/08 02:33:48;;;;;;;28.38;16.23;;;;;;;;;;4919312;29;20209;-55
2022/11/08 02:36:18;;;;;;;29.33;16.63;;;;;;;;;;4919380;29;20209;-53
2022/11/08 02:38:47;;;;;;;30.48;16.08;;;;;;;;;;4919778;29;20594;-55
2022/11/08 02:41:14;;;;;;;29.90;16.88;;;;;;;;;;4918878;29;20287;-56
2022/11/08 02:43:41;;;;;;;25.77;16.08;;;;;;;;;;4919339;29;20209;-57
2022/11/08 02:46:08;;;;;;;31.92;16.98;;;;;;;;;;4919382;29;20212;-53
2022/11/08 02:48:35;;;;;;;29.00;16.23;;;;;;;;;;4919430;29;20259;-57
2022/11/08 02:51:02;;;;;;;27.23;17.10;;;;;;;;;;4918903;29;20228;-55
2022/11/08 02:53:30;;;;;;;29.30;17.33;;;;;;;;;;4918948;29;20703;-57
2022/11/08 02:55:57;;;;;;;27.73;17.58;;;;;;;;;;4919036;29;20312;-58
2022/11/08 02:58:24;;;;;;;50.33;23.42;;;;;;;;;;4918879;29;20225;-56
2022/11/08 03:00:51;;;;;;;30.55;16.75;;;;;;;;;;4918800;29;20251;-56
2022/11/08 03:03:18;;;;;;;36.38;17.67;;;;;;;;;;4919113;29;20217;-58
2022/11/08 03:05:46;;;;;;;28.88;16.70;;;;;;;;;;4918977;29;20304;-58
2022/11/08 03:08:14;;;;;;;27.65;16.67;;;;;;;;;;4919018;29;20209;-58
2022/11/08 03:10:41;;;;;;;28.88;17.10;;;;;;;;;;4918636;29;20632;-55
2022/11/08 03:13:08;;;;;;;29.67;15.70;;;;;;;;;;4918802;29;20640;-56
2022/11/08 03:15:35;;;;;;;26.70;16.50;;;;;;;;;;4918705;29;20305;-58
2022/11/08 03:18:02;;;;;;;27.90;16.45;;;;;;;;;;4918553;29;20224;-57
2022/11/08 03:20:29;;;;;;;32.70;16.15;;;;;;;;;;4919034;29;20239;-58
2022/11/08 03:23:02;;;;;;;55.75;44.67;;;;;;;;;;4918824;29;20275;-57
2022/11/08 03:25:29;;;;;;;33.97;17.10;;;;;;;;;;4917965;29;20644;-55
2022/11/08 03:28:01;;;;;;;45.63;18.83;;;;;;;;;;4918713;29;20300;-56
2022/11/08 03:30:28;;;;;;;28.45;15.05;;;;;;;;;;4918775;29;20271;-58
2022/11/08 03:32:56;;;;;;;30.92;16.13;;;;;;;;;;4918710;29;20219;-56
2022/11/08 03:35:23;;;;;;;29.08;15.82;;;;;;;;;;4902304;29;20288;-56
2022/11/08 03:37:54;;;;;;;32.50;15.52;;;;;;;;;;4918353;29;20688;-57
2022/11/08 03:40:22;;;;;;;30.90;15.75;;;;;;;;;;4918892;29;20256;-57
2022/11/08 03:42:49;;;;;;;24.63;14.85;;;;;;;;;;4918439;29;20208;-58
2022/11/08 03:45:16;;;;;;;26.35;15.30;;;;;;;;;;4918382;29;20335;-55
2022/11/08 03:47:45;;;;;;;26.67;15.43;;;;;;;;;;4918269;29;20657;-58
2022/11/08 03:50:13;;;;;;;82.78;59.72;;;;;;;;;;4918262;29;20243;-58
2022/11/08 03:52:45;;;;;;;53.45;25.65;;;;;;;;;;4918281;29;20663;-56
2022/11/08 03:55:12;;;;;;;50.08;19.67;;;;;;;;;;4918702;29;20208;-58
2022/11/08 03:57:40;;;;;;;42.08;19.10;;;;;;;;;;4918036;29;20237;-57
2022/11/08 04:00:09;;;;;;;39.60;18.08;;;;;;;;;;4918408;29;20220;-55
2022/11/08 04:02:39;;;;;;;28.20;15.35;;;;;;;;;;4918879;29;20252;-55
2022/11/08 04:05:08;;;;;;;30.83;15.65;;;;;;;;;;4918268;29;20204;-58
2022/11/08 04:07:35;;;;;;;25.30;15.07;;;;;;;;;;4918081;29;20573;-55
2022/11/08 04:10:03;;;;;;;29.45;15.85;;;;;;;;;;4918190;29;20625;-55
2022/11/08 04:15:19;;;;;;;27.58;16.33;;;;;;;;;;4918284;29;20248;-57
2022/11/08 04:23:24;;;;;;;46.58;21.25;;;;;;;;;;4901317;29;20212;-56
2022/11/08 04:25:56;;;;;;;39.55;20.05;;;;;;;;;;4917915;29;20287;-57
2022/11/08 04:28:28;;;;;;;31.95;18.08;;;;;;;;;;4918144;29;20205;-57
2022/11/08 04:30:57;;;;;;;42.13;19.08;;;;;;;;;;4901677;29;20220;-58
2022/11/08 04:33:25;;;;;;;43.33;19.98;;;;;;;;;;4917872;29;20625;-56
2022/11/08 04:35:52;;;;;;;42.92;20.45;;;;;;;;;;4918152;29;20236;-58
2022/11/08 04:38:20;;;;;;;90.25;63.35;;;;;;;;;;4920762;29;20237;-55
2022/11/08 04:40:47;;;;;;;52.35;26.05;;;;;;;;;;4921302;29;20715;-56
2022/11/08 04:43:14;;;;;;;43.90;21.25;;;;;;;;;;4921443;29;20208;-56
2022/11/08 04:45:41;;;;;;;39.55;20.80;;;;;;;;;;4921359;29;20209;-58
2022/11/08 04:48:09;;;;;;;37.17;19.52;;;;;;;;;;4921221;29;20223;-58
2022/11/08 04:50:36;;;;;;;32.97;19.65;;;;;;;;;;4932122;29;20271;-58
2022/11/08 04:53:03;;;;;;;35.03;19.08;;;;;;;;;;4922121;29;20201;-55
2022/11/08 04:55:30;;;;;;;34.00;19.88;;;;;;;;;;4928452;29;20579;-55
2022/11/08 04:57:57;;;;;;;34.90;19.23;;;;;;;;;;4925242;29;20237;-58
2022/11/08 05:00:25;;;;;;;35.85;19.25;;;;;;;;;;4927774;29;20228;-58
2022/11/08 05:02:52;;;;;;;38.70;20.77;;;;;;;;;;4932805;29;20283;-56
2022/11/08 05:05:20;;;;;;;93.95;70.60;;;;;;;;;;4929277;29;20646;-56
2022/11/08 05:07:47;;;;;;;47.05;26.45;;;;;;;;;;4920053;29;20236;-56
2022/11/08 05:10:14;;;;;;;43.40;22.67;;;;;;;;;;4919630;29;20228;-57
2022/11/08 05:12:41;;;;;;;37.70;20.17;;;;;;;;;;4918777;29;20249;-58
2022/11/08 05:15:09;;;;;;;41.67;20.35;;;;;;;;;;4919552;29;20257;-56
2022/11/08 05:17:36;;;;;;;32.75;19.15;;;;;;;;;;4919908;29;20233;-54
2022/11/08 05:25:39;;;;;;;36.60;20.83;;;;;;;;;;4919704;29;20229;-55
2022/11/08 05:28:06;;;;;;;36.72;21.08;;;;;;;;;;4919330;29;20283;-57
2022/11/08 05:30:33;;;;;;;50.30;36.22;;;;;;;;;;4918407;29;20239;-57
2022/11/08 05:33:00;;;;;;;41.58;23.48;;;;;;;;;;4917998;29;20236;-56
2022/11/08 05:35:27;;;;;;;38.25;22.48;;;;;;;;;;4917767;29;20232;-56
2022/11/08 05:37:54;;;;;;;40.15;22.10;;;;;;;;;;4918597;29;20241;-57
2022/11/08 05:40:21;;;;;;;36.50;21.88;;;;;;;;;;4918801;29;20233;-58
2022/11/08 05:42:48;;;;;;;36.35;21.48;;;;;;;;;;4918227;29;20228;-58
2022/11/08 05:45:15;;;;;;;39.97;22.70;;;;;;;;;;4917952;29;20307;-59
2022/11/08 05:47:44;;;;;;;54.13;34.65;;;;;;;;;;4917446;29;20320;-55
2022/11/08 05:50:12;;;;;;;41.42;24.50;;;;;;;;;;4916309;29;20237;-57
2022/11/08 05:52:45;;;;;;;37.15;22.15;;;;;;;;;;4917313;29;20232;-57
2022/11/08 05:55:12;;;;;;;37.63;23.20;;;;;;;;;;4916128;29;20256;-56
2022/11/08 05:57:42;;;;;;;48.45;28.85;;;;;;;;;;4915903;29;20593;-55
2022/11/08 06:00:11;;;;;;;40.30;24.27;;;;;;;;;;4916584;29;20229;-58
2022/11/08 06:02:38;;;;;;;47.92;24.15;;;;;;;;;;4918194;29;20225;-58
2022/11/08 06:05:07;;;;;;;50.33;26.35;;;;;;;;;;4902157;29;20240;-58
2022/11/08 06:07:34;;;;;;;42.80;23.60;;;;;;;;;;4918586;29;20576;-58
2022/11/08 06:10:02;;;;;;;37.78;22.33;;;;;;;;;;4918624;29;20576;-56
2022/11/08 06:12:29;;;;;;;35.95;20.88;;;;;;;;;;4902703;29;20224;-57
2022/11/08 06:14:56;;;;;;;40.85;22.10;;;;;;;;;;4918229;29;20236;-58
2022/11/08 06:17:23;;;;;;;32.75;21.48;;;;;;;;;;4918768;29;20692;-56
2022/11/08 06:19:55;;;;;;;33.75;20.88;;;;;;;;;;4919513;29;20264;-55
2022/11/08 06:22:22;;;;;;;39.20;23.23;;;;;;;;;;4919651;29;20213;-57
2022/11/08 06:24:49;;;;;;;39.38;25.50;;;;;;;;;;4919797;29;20276;-56
2022/11/08 06:27:16;;;;;;;39.03;23.58;;;;;;;;;;4920113;29;20620;-55
2022/11/08 06:29:43;;;;;;;39.70;23.35;;;;;;;;;;4919538;29;20512;-55
2022/11/08 06:32:10;;;;;;;40.78;23.60;;;;;;;;;;4919304;29;20652;-56
2022/11/08 06:34:37;;;;;;;34.67;21.48;;;;;;;;;;4919543;29;20239;-56
2022/11/08 06:37:04;;;;;;;39.67;20.38;;;;;;;;;;4919547;29;20236;-58
2022/11/08 06:39:31;;;;;;;33.10;19.25;;;;;;;;;;4919125;29;20394;-57
2022/11/08 06:41:59;;;;;;;37.75;22.58;;;;;;;;;;4919173;29;20577;-56
2022/11/08 06:44:26;;;;;;;31.05;19.15;;;;;;;;;;4919030;29;20271;-57
2022/11/08 06:46:56;;;;;;;37.47;20.10;;;;;;;;;;4919349;29;20196;-56
2022/11/08 06:49:23;;;;;;;31.35;20.08;;;;;;;;;;4919160;29;20228;-57
2022/11/08 06:51:51;;;;;;;32.38;21.02;;;;;;;;;;4918961;29;20520;-55
2022/11/08 06:54:18;;;;;;;45.17;25.10;;;;;;;;;;4918881;29;20564;-57
2022/11/08 06:56:54;;;;;;;30.23;17.90;;;;;;;;;;4918886;29;20216;-55
2022/11/08 06:59:22;;;;;;;30.35;18.08;;;;;;;;;;4903478;29;20252;-56
2022/11/08 07:01:49;;;;;;;35.85;18.25;;;;;;;;;;4918805;29;20208;-55
2022/11/08 07:04:16;;;;;;;31.08;18.30;;;;;;;;;;4918826;29;20204;-58
2022/11/08 07:06:43;;;;;;;36.00;18.25;;;;;;;;;;4918931;29;20209;-57
2022/11/08 07:09:10;;;;;;;27.13;16.92;;;;;;;;;;4918967;29;20213;-56
2022/11/08 07:11:37;;;;;;;25.45;15.85;;;;;;;;;;4918745;29;20205;-57
2022/11/08 07:14:04;;;;;;;29.33;16.80;;;;;;;;;;4918609;29;20244;-56
2022/11/08 07:16:32;;;;;;;29.00;16.65;;;;;;;;;;4919153;29;20249;-57
2022/11/08 07:18:58;;;;;;;43.35;22.48;;;;;;;;;;4918741;29;20228;-55
2022/11/08 07:21:26;;;;;;;39.65;19.75;;;;;;;;;;4918903;29;20211;-56
2022/11/08 07:23:53;;;;;;;31.92;17.42;;;;;;;;;;4918573;29;20212;-56
2022/11/08 07:26:20;;;;;;;29.05;17.42;;;;;;;;;;4918623;29;20651;-56
2022/11/08 07:28:47;;;;;;;35.72;18.02;;;;;;;;;;4918424;29;20236;-55
2022/11/08 07:31:14;;;;;;;32.90;17.33;;;;;;;;;;4919043;29;20220;-57
2022/11/08 07:33:41;;;;;;;30.27;17.10;;;;;;;;;;4918981;29;20209;-57
2022/11/08 07:36:08;;;;;;;29.45;16.92;;;;;;;;;;4918616;29;20209;-56
2022/11/08 07:38:35;;;;;;;44.33;20.95;;;;;;;;;;4918507;29;20315;-55
2022/11/08 07:41:02;;;;;;;32.35;21.08;;;;;;;;;;4918440;29;20217;-57
2022/11/08 07:43:29;;;;;;;30.17;17.42;;;;;;;;;;4918371;29;20271;-53
2022/11/08 07:46:14;;;;;;;31.55;16.77;;;;;;;;;;4888848;29;20640;-57
2022/11/08 07:48:41;;;;;;;31.40;16.60;;;;;;;;;;4918529;29;20236;-57
2022/11/08 07:51:08;;;;;;;31.30;16.98;;;;;;;;;;4918416;29;20536;-55
2022/11/08 07:53:35;;;;;;;30.65;15.90;;;;;;;;;;4918245;29;20296;-54
2022/11/08 07:56:02;;;;;;;27.33;15.18;;;;;;;;;;4918482;29;20213;-57
2022/11/08 07:58:29;;;;;;;24.10;15.00;;;;;;;;;;4918224;29;20229;-56
2022/11/08 08:01:01;;;;;;;25.25;15.27;;;;;;;;;;4918395;29;20239;-56
2022/11/08 08:03:28;;;;;;;30.95;14.65;;;;;;;;;;4918190;29;20201;-57
2022/11/08 08:05:56;;;;;;;32.08;15.85;;;;;;;;;;4918189;29;20224;-55
2022/11/08 08:08:27;;;;;;;30.67;23.17;;;;;;;;;;4918622;29;20204;-57
2022/11/08 08:10:58;;;;;;;29.42;16.10;;;;;;;;;;4918472;29;20201;-57
2022/11/08 08:13:26;;;;;;;25.25;14.05;;;;;;;;;;4921171;29;20208;-57
2022/11/08 08:15:57;;;;;;;33.60;15.50;;;;;;;;;;4922001;29;20244;-57
2022/11/08 08:18:24;;;;;;;26.23;14.38;;;;;;;;;;4922396;29;20267;-55
2022/11/08 08:20:51;;;;;;;36.38;16.95;;;;;;;;;;4921598;29;20216;-55
2022/11/08 08:23:18;;;;;;;26.08;14.55;;;;;;;;;;4921967;29;20212;-56
2022/11/08 08:25:45;;;;;;;27.13;14.85;;;;;;;;;;4921984;29;20632;-57
2022/11/08 08:28:12;;;;;;;27.58;14.40;;;;;;;;;;4922192;29;20212;-55
2022/11/08 08:30:40;;;;;;;25.10;13.68;;;;;;;;;;4921410;29;20210;-57
2022/11/08 08:33:10;;;;;;;25.73;14.07;;;;;;;;;;4922359;29;20296;-56
2022/11/08 08:35:55;;;;;;;38.60;20.20;;;;;;;;;;4921802;29;20200;-55
2022/11/08 08:38:22;;;;;;;24.38;14.15;;;;;;;;;;4921627;29;20229;-56
2022/11/08 08:40:50;;;;;;;31.02;15.82;;;;;;;;;;4921532;29;20204;-57
2022/11/08 08:43:17;;;;;;;22.92;13.82;;;;;;;;;;4921497;29;20624;-57
2022/11/08 08:45:45;;;;;;;25.73;13.85;;;;;;;;;;4921459;29;20209;-56
2022/11/08 08:48:12;;;;;;;27.20;13.82;;;;;;;;;;4921456;29;20671;-58
2022/11/08 08:50:40;;;;;;;23.67;13.52;;;;;;;;;;4921339;29;20212;-57
2022/11/08 08:53:07;;;;;;;23.23;13.50;;;;;;;;;;4921350;29;20236;-56
2022/11/08 08:55:35;;;;;;;29.77;14.90;;;;;;;;;;4921324;29;20209;-57
2022/11/08 08:58:02;;;;;;;24.95;16.55;;;;;;;;;;4905058;29;20292;-58
2022/11/08 09:00:29;;;;;;;19.02;12.82;;;;;;;;;;4921027;29;20628;-57
2022/11/08 09:03:16;;;;;;;30.50;13.73;;;;;;;;;;4920961;29;20220;-55
2022/11/08 09:05:45;;;;;;;25.45;13.68;;;;;;;;;;4920877;29;20239;-56
2022/11/08 09:08:13;;;;;;;21.15;12.43;;;;;;;;;;4921112;29;20219;-56
2022/11/08 09:10:41;;;;;;;20.15;12.35;;;;;;;;;;4920834;29;20719;-57
2022/11/08 09:13:08;;;;;;;27.58;13.13;;;;;;;;;;4920999;29;20284;-55
2022/11/08 09:15:35;;;;;;;30.10;13.75;;;;;;;;;;4920850;29;20248;-57
2022/11/08 09:18:02;;;;;;;23.00;11.48;;;;;;;;;;4920924;29;20200;-55
2022/11/08 09:20:30;;;;;;;20.80;11.30;;;;;;;;;;4920503;29;20248;-56
2022/11/08 09:23:03;;;;;;;18.80;11.32;;;;;;;;;;4920425;29;20271;-57
2022/11/08 09:25:30;;;;;;;27.30;14.70;;;;;;;;;;4920363;29;20220;-57
2022/11/08 09:27:57;;;;;;;34.80;13.88;;;;;;;;;;4920636;29;20237;-57
2022/11/08 09:30:25;;;;;;;29.90;12.95;;;;;;;;;;4920609;29;20644;-57
2022/11/08 09:32:52;;;;;;;29.13;13.93;;;;;;;;;;4920591;29;20219;-57
2022/11/08 09:35:29;;;;;;;22.65;10.95;;;;;;;;;;4920735;29;20577;-57
2022/11/08 09:37:56;;;;;;;29.98;12.80;;;;;;;;;;4920602;29;20215;-57
2022/11/08 09:40:30;;;;;;;21.67;11.25;;;;;;;;;;4904087;29;20232;-56
2022/11/08 09:43:16;;;;;;;19.88;10.63;;;;;;;;;;4887749;29;20213;-56
2022/11/08 09:45:45;;;;;;;18.65;10.20;;;;;;;;;;4920206;29;20295;-57
2022/11/08 09:48:22;;;;;;;39.33;32.83;;;;;;;;;;4904022;29;20205;-56
2022/11/08 09:50:51;;;;;;;34.00;18.15;;;;;;;;;;4920246;29;20212;-56
2022/11/08 09:53:33;;;;;;;23.63;11.15;;;;;;;;;;4903951;29;20268;-57
2022/11/08 09:56:34;;;;;;;23.20;11.20;;;;;;;;;;4904301;29;20264;-57
2022/11/08 09:59:09;;;;;;;20.75;10.70;;;;;;;;;;4919995;29;20221;-55
2022/11/08 10:01:37;;;;;;;17.33;9.30;;;;;;;;;;4920501;29;20212;-57
2022/11/08 10:04:07;;;;;;;21.10;10.32;;;;;;;;;;4920158;29;20201;-56
2022/11/08 10:07:19;;;;;;;18.90;9.75;;;;;;;;;;4904195;29;20223;-57
2022/11/08 10:10:17;;;;;;;20.80;9.50;;;;;;;;;;4889396;29;20236;-57
2022/11/08 10:12:57;;;;;;;14.93;8.50;;;;;;;;;;4884678;29;20197;-56
2022/11/08 10:15:30;;;;;;;17.42;10.27;;;;;;;;;;4901001;29;20752;-56
2022/11/08 10:18:01;;;;;;;26.67;15.85;;;;;;;;;;4884641;29;20210;-56
2022/11/08 10:20:47;;;;;;;27.85;11.88;;;;;;;;;;4901146;29;20358;-56
2022/11/08 10:23:30;;;;;;;17.65;8.60;;;;;;;;;;4900689;29;20217;-57
2022/11/08 10:26:04;;;;;;;16.55;8.32;;;;;;;;;;4900964;29;20216;-56
2022/11/08 10:28:35;;;;;;;16.05;8.40;;;;;;;;;;4900964;29;20216;-56
2022/11/08 10:31:03;;;;;;;22.27;8.43;;;;;;;;;;4900705;29;20518;-57
2022/11/08 10:33:36;;;;;;;15.02;7.55;;;;;;;;;;4900506;29;20201;-58
2022/11/08 10:36:10;;;;;;;12.93;7.28;;;;;;;;;;4900390;29;20205;-57
2022/11/08 10:39:03;;;;;;;14.07;7.35;;;;;;;;;;4900665;29;20188;-57
2022/11/08 10:41:38;;;;;;;14.18;7.32;;;;;;;;;;4900840;29;20565;-56
2022/11/08 10:44:19;;;;;;;19.55;9.52;;;;;;;;;;4900409;29;20213;-56
2022/11/08 10:46:57;;;;;;;29.23;12.32;;;;;;;;;;4901028;29;20217;-58
2022/11/08 10:49:26;;;;;;;16.45;9.23;;;;;;;;;;4884267;29;20217;-56
2022/11/08 10:52:01;;;;;;;17.50;8.35;;;;;;;;;;4884100;29;20233;-56
2022/11/08 10:54:51;;;;;;;24.30;9.90;;;;;;;;;;4900153;29;20209;-56
2022/11/08 10:57:27;;;;;;;13.40;6.45;;;;;;;;;;4900261;29;20225;-57
2022/11/08 10:59:55;;;;;;;20.33;8.38;;;;;;;;;;4899934;29;20538;-57
2022/11/08 11:02:24;;;;;;;14.27;6.97;;;;;;;;;;4900199;29;20586;-57
2022/11/08 11:04:52;;;;;;;14.77;7.10;;;;;;;;;;4899995;29;20305;-55
2022/11/08 11:07:34;;;;;;;13.63;9.43;;;;;;;;;;4900151;29;20285;-56
2022/11/08 11:10:27;;;;;;;13.65;6.20;;;;;;;;;;4900133;29;20233;-56
2022/11/08 11:13:09;;;;;;;11.38;6.18;;;;;;;;;;4900082;29;20249;-56
2022/11/08 11:15:52;;;;;;;18.92;7.25;;;;;;;;;;4900112;29;20245;-58
2022/11/08 11:18:33;;;;;;;13.00;6.32;;;;;;;;;;4899778;29;20539;-57
2022/11/08 11:21:08;;;;;;;12.10;5.78;;;;;;;;;;4899861;29;20288;-57
2022/11/08 11:23:41;;;;;;;13.30;6.65;;;;;;;;;;4899888;29;20209;-57
2022/11/08 11:26:17;;;;;;;11.77;5.40;;;;;;;;;;4899713;29;20724;-57
2022/11/08 11:29:07;;;;;;;12.50;5.25;;;;;;;;;;4883544;29;20216;-58
2022/11/08 11:31:39;;;;;;;11.73;5.53;;;;;;;;;;4884188;29;20209;-56
2022/11/08 11:34:16;;;;;;;11.65;5.95;;;;;;;;;;4899500;29;20220;-56
2022/11/08 11:37:09;;;;;;;23.45;8.50;;;;;;;;;;4900409;29;20197;-58
2022/11/08 11:40:09;;;;;;;10.80;5.20;;;;;;;;;;4899959;29;20214;-57
2022/11/08 11:42:41;;;;;;;9.88;4.88;;;;;;;;;;4845563;29;20214;-56
2022/11/08 11:45:15;;;;;;;9.80;4.60;;;;;;;;;;4861015;29;20217;-57
2022/11/08 11:48:10;;;;;;;8.82;4.30;;;;;;;;;;4862740;29;20255;-57
2022/11/08 11:50:40;;;;;;;18.40;11.10;;;;;;;;;;4864352;29;20229;-57
2022/11/08 11:53:18;;;;;;;11.27;5.90;;;;;;;;;;4864584;29;20293;-57
2022/11/08 11:56:10;;;;;;;9.07;5.13;;;;;;;;;;4864570;29;20221;-56
2022/11/08 11:58:45;;;;;;;9.25;4.35;;;;;;;;;;4864832;29;20210;-57
2022/11/08 12:01:37;;;;;;;9.43;4.32;;;;;;;;;;4864550;29;20213;-57
2022/11/08 12:04:42;;;;;;;10.70;4.45;;;;;;;;;;4849164;29;20234;-58
2022/11/08 12:07:18;;;;;;;10.18;4.03;;;;;;;;;;4819739;29;20210;-58
2022/11/08 12:10:14;;;;;;;10.90;4.07;;;;;;;;;;4848961;29;20618;-57
2022/11/08 12:13:03;;;;;;;8.05;4.10;;;;;;;;;;4864427;29;20203;-58
2022/11/08 12:15:47;;;;;;;8.43;3.85;;;;;;;;;;4848605;29;20306;-58
2022/11/08 12:18:24;;;;;;;35.50;18.42;;;;;;;;;;4856304;29;20280;-58
2022/11/08 12:21:23;;;;;;;16.10;7.50;;;;;;;;;;4903116;29;20516;-57
2022/11/08 12:24:26;;;;;;;8.15;4.43;;;;;;;;;;4918134;29;20549;-58
2022/11/08 12:27:02;;;;;;;11.05;5.35;;;;;;;;;;4909035;29;20671;-58
2022/11/08 12:29:29;;;;;;;14.55;5.88;;;;;;;;;;4921562;29;20260;-58
2022/11/08 12:32:09;;;;;;;12.43;5.65;;;;;;;;;;4921798;29;20323;-58
2022/11/08 12:35:05;;;;;;;8.05;4.93;;;;;;;;;;4921520;29;20205;-57
2022/11/08 12:38:23;;;;;;;8.77;5.22;;;;;;;;;;4905366;29;20213;-57
2022/11/08 12:40:58;;;;;;;10.43;5.47;;;;;;;;;;4845177;29;20596;-57
2022/11/08 12:43:58;;;;;;;8.25;4.68;;;;;;;;;;4830055;29;20206;-56
2022/11/08 12:46:27;;;;;;;10.77;5.57;;;;;;;;;;4845302;29;20264;-58
2022/11/08 12:49:00;;;;;;;28.48;9.18;;;;;;;;;;4829672;29;20537;-59
2022/11/08 12:51:33;;;;;;;12.82;5.93;;;;;;;;;;4845165;29;20207;-58
2022/11/08 12:54:18;;;;;;;15.32;5.75;;;;;;;;;;4844926;29;20195;-58
2022/11/08 12:56:47;;;;;;;9.18;4.85;;;;;;;;;;4844924;29;20608;-57
2022/11/08 12:59:19;;;;;;;10.73;5.57;;;;;;;;;;4844538;29;20208;-57
2022/11/08 13:01:46;;;;;;;13.77;5.40;;;;;;;;;;4844972;29;20215;-58
2022/11/08 13:04:17;;;;;;;12.50;5.95;;;;;;;;;;4829514;29;20283;-57
2022/11/08 13:06:49;;;;;;;24.52;19.48;;;;;;;;;;4846924;29;20211;-59
2022/11/08 13:09:24;;;;;;;16.42;7.97;;;;;;;;;;4858047;29;20291;-60
2022/11/08 13:12:13;;;;;;;12.77;6.20;;;;;;;;;;4844664;29;20251;-60
2022/11/08 13:14:40;;;;;;;17.45;6.95;;;;;;;;;;4844616;29;20242;-59
2022/11/08 13:17:07;;;;;;;14.65;6.28;;;;;;;;;;4891436;29;20703;-59
2022/11/08 13:19:46;;;;;;;12.20;5.95;;;;;;;;;;4920504;29;20296;-60
2022/11/08 13:22:28;;;;;;;13.20;6.20;;;;;;;;;;4920547;29;20216;-59
2022/11/08 13:25:12;;;;;;;13.48;5.97;;;;;;;;;;4921129;29;20276;-59
2022/11/08 13:27:43;;;;;;;11.95;6.22;;;;;;;;;;4920540;29;20197;-59
2022/11/08 13:30:10;;;;;;;13.90;5.80;;;;;;;;;;4904086;29;20303;-60
2022/11/08 13:32:47;;;;;;;22.08;9.75;;;;;;;;;;4920598;29;20352;-60
2022/11/08 13:35:39;;;;;;;14.35;6.32;;;;;;;;;;4920657;29;20248;-60
2022/11/08 13:38:44;;;;;;;19.48;5.95;;;;;;;;;;4903804;29;20189;-60
2022/11/08 13:41:16;;;;;;;19.17;5.75;;;;;;;;;;4883236;29;20232;-59
2022/11/08 13:43:44;;;;;;;11.32;5.32;;;;;;;;;;4903432;29;20228;-60
2022/11/08 13:46:26;;;;;;;9.43;4.97;;;;;;;;;;4902603;29;20253;-59
2022/11/08 13:49:03;;;;;;;13.70;5.00;;;;;;;;;;4918474;29;20266;-59
2022/11/08 13:51:32;;;;;;;10.98;5.75;;;;;;;;;;4918809;29;20303;-59
2022/11/08 13:54:21;;;;;;;12.15;4.97;;;;;;;;;;4919339;29;20307;-59
2022/11/08 13:56:50;;;;;;;29.02;20.58;;;;;;;;;;4918487;29;20308;-59
2022/11/08 13:59:29;;;;;;;24.25;11.07;;;;;;;;;;4919708;29;20229;-59
2022/11/08 14:01:57;;;;;;;21.35;8.05;;;;;;;;;;4928484;29;20247;-59
2022/11/08 14:04:32;;;;;;;13.85;5.78;;;;;;;;;;4938375;29;20236;-59
2022/11/08 14:07:03;;;;;;;14.80;6.07;;;;;;;;;;4938134;29;20227;-60
2022/11/08 14:09:55;;;;;;;28.17;17.85;;;;;;;;;;4937472;29;20238;-59
2022/11/08 14:12:36;;;;;;;287.92;99.90;;;;;;;;;;4921221;29;20232;-59
2022/11/08 14:15:28;;;;;;;49.20;24.83;;;;;;;;;;4900250;29;20260;-59
2022/11/08 14:17:59;;;;;;;27.48;18.27;;;;;;;;;;4900290;29;20311;-58
2022/11/08 14:20:38;;;;;;;15.02;8.82;;;;;;;;;;4883565;29;20309;-59
2022/11/08 14:23:17;;;;;;;30.17;19.10;;;;;;;;;;4911721;29;20224;-60
2022/11/08 14:25:47;;;;;;;13.43;9.00;;;;;;;;;;4899543;29;20335;-60
2022/11/08 14:28:27;;;;;;;22.42;11.00;;;;;;;;;;4898913;29;20234;-59
2022/11/08 14:30:54;;;;;;;50.00;29.75;;;;;;;;;;4900210;29;20237;-59
2022/11/08 14:33:25;;;;;;;26.80;14.05;;;;;;;;;;4899664;29;20229;-59
2022/11/08 14:35:57;;;;;;;88.22;51.78;;;;;;;;;;4899824;29;20264;-60
2022/11/08 14:38:26;;;;;;;33.90;23.58;;;;;;;;;;4899555;29;20233;-60
2022/11/08 14:40:55;;;;;;;32.28;23.42;;;;;;;;;;4899430;29;20328;-59
2022/11/08 14:43:23;;;;;;;265.48;128.82;;;;;;;;;;4898875;29;20236;-58
2022/11/08 14:45:50;;;;;;;152.63;92.50;;;;;;;;;;4902241;29;20237;-59
2022/11/08 14:48:27;;;;;;;162.88;113.18;;;;;;;;;;4901897;29;20232;-59
2022/11/08 14:50:59;;;;;;;217.18;81.50;;;;;;;;;;4918908;29;20224;-60
2022/11/08 14:53:31;;;;;;;90.28;39.05;;;;;;;;;;4918263;29;20549;-58
2022/11/08 14:56:02;;;;;;;35.55;22.30;;;;;;;;;;4917965;29;20224;-60
2022/11/08 14:58:29;;;;;;;14.23;7.80;;;;;;;;;;4917998;29;20216;-60
2022/11/08 15:00:57;;;;;;;42.65;21.48;;;;;;;;;;4918305;29;20256;-60
2022/11/08 15:03:28;;;;;;;72.88;31.23;;;;;;;;;;4918907;29;20242;-60
2022/11/08 15:06:28;;;;;;;104.82;48.35;;;;;;;;;;4900901;29;20255;-60
2022/11/08 15:08:55;;;;;;;101.80;53.95;;;;;;;;;;4918066;29;20233;-59
2022/11/08 15:11:28;;;;;;;36.63;30.38;;;;;;;;;;4917492;29;20303;-60
2022/11/08 15:14:07;;;;;;;48.33;34.13;;;;;;;;;;4901699;29;20240;-62